Roodhouse, Illinois
Current Conditions -  °F | °C
As of 7:35 PM on Friday 24 Oct 2014 (Local Time) from KIJX Reporting Station
Clear Clear  
Wind Chill: 65°   Ceiling: Unl
Heat Index: 65°   Visibility: 10mi
Dew Point: 52°   Wind: 8mph
Humidity: 62%   Direction: 170°S
Pressure: 29.97"   Gusts: NA
Location:  39.48°N, 90.37°W
Report Text: KIJX 250035Z AUTO 17007KT 10SM CLR 18/11 A2997 RMK AO2 T01830109
Loading
Personal Weather Stations






























Interactive Weather Map
Tropical Storm Tracking
New forecast layout! Learn more

10-Day Weather Forecast

Advertisements
Track Severe Weather on mobile